Terminal Aerodrome Forecast
Issued by NWS Twin Cities, MN

Home | Current Version | Previous Version | Graphics & Text | Print | Product List | Glossary On
Versions: 1 2 3 4 5 6 7 8 9 10 11 12 13 14 15 16 17 18
000
FTUS43 KMPX 291700
TAFSTC
TAF
KSTC 291736Z 2918/3018 05009KT P6SM BKN017 OVC035
     FM292200 07008KT P6SM SCT025
     FM301100 09004KT 6SM BR BKN008
     FM301400 10008KT P6SM SCT015 SCT250=

USA.gov is the U.S. government's official web portal to all federal, state and local government web resources and services.